sensor_id;sensor_type;location;lat;lon;timestamp;P1;durP1;ratioP1;P2;durP2;ratioP2
74320;SDS011;62738;45.772;4.804;2023-05-09T00:00:12;3.38;;;1.75;;
74320;SDS011;62738;45.772;4.804;2023-05-09T00:02:39;5.40;;;1.63;;
74320;SDS011;62738;45.772;4.804;2023-05-09T00:05:07;3.33;;;1.83;;
74320;SDS011;62738;45.772;4.804;2023-05-09T00:07:35;3.88;;;2.13;;
74320;SDS011;62738;45.772;4.804;2023-05-09T00:10:02;4.72;;;1.80;;
74320;SDS011;62738;45.772;4.804;2023-05-09T00:12:29;3.60;;;2.17;;
74320;SDS011;62738;45.772;4.804;2023-05-09T00:14:56;2.60;;;1.48;;
74320;SDS011;62738;45.772;4.804;2023-05-09T00:17:23;3.75;;;2.13;;
74320;SDS011;62738;45.772;4.804;2023-05-09T00:19:50;4.10;;;1.90;;
74320;SDS011;62738;45.772;4.804;2023-05-09T00:22:18;3.13;;;1.80;;
74320;SDS011;62738;45.772;4.804;2023-05-09T00:24:48;4.88;;;1.80;;
74320;SDS011;62738;45.772;4.804;2023-05-09T00:27:15;2.17;;;1.67;;
74320;SDS011;62738;45.772;4.804;2023-05-09T00:29:42;4.05;;;1.70;;
74320;SDS011;62738;45.772;4.804;2023-05-09T00:32:09;2.58;;;1.80;;
74320;SDS011;62738;45.772;4.804;2023-05-09T00:34:36;2.20;;;1.42;;
74320;SDS011;62738;45.772;4.804;2023-05-09T00:37:02;2.70;;;1.73;;
74320;SDS011;62738;45.772;4.804;2023-05-09T00:39:29;3.67;;;2.00;;
74320;SDS011;62738;45.772;4.804;2023-05-09T00:41:56;4.82;;;1.70;;
74320;SDS011;62738;45.772;4.804;2023-05-09T00:44:22;2.38;;;1.67;;
74320;SDS011;62738;45.772;4.804;2023-05-09T00:46:49;3.17;;;1.67;;
74320;SDS011;62738;45.772;4.804;2023-05-09T00:49:16;4.28;;;2.03;;
74320;SDS011;62738;45.772;4.804;2023-05-09T00:51:42;4.25;;;1.70;;
74320;SDS011;62738;45.772;4.804;2023-05-09T00:54:09;3.33;;;1.80;;
74320;SDS011;62738;45.772;4.804;2023-05-09T00:56:37;5.22;;;2.10;;
74320;SDS011;62738;45.772;4.804;2023-05-09T00:59:04;3.03;;;1.70;;
74320;SDS011;62738;45.772;4.804;2023-05-09T01:04:06;2.60;;;1.85;;
74320;SDS011;62738;45.772;4.804;2023-05-09T01:06:37;2.75;;;1.80;;
74320;SDS011;62738;45.772;4.804;2023-05-09T01:14:38;3.35;;;1.52;;
74320;SDS011;62738;45.772;4.804;2023-05-09T01:17:25;3.03;;;1.92;;
74320;SDS011;62738;45.772;4.804;2023-05-09T01:22:28;2.55;;;1.80;;
74320;SDS011;62738;45.772;4.804;2023-05-09T01:25:01;2.92;;;1.73;;
74320;SDS011;62738;45.772;4.804;2023-05-09T01:30:10;3.60;;;1.92;;
74320;SDS011;62738;45.772;4.804;2023-05-09T01:32:39;3.72;;;1.63;;
74320;SDS011;62738;45.772;4.804;2023-05-09T01:35:08;3.40;;;1.95;;
74320;SDS011;62738;45.772;4.804;2023-05-09T01:37:39;3.50;;;1.48;;
74320;SDS011;62738;45.772;4.804;2023-05-09T01:40:18;3.72;;;1.60;;
74320;SDS011;62738;45.772;4.804;2023-05-09T01:45:23;4.30;;;1.83;;
74320;SDS011;62738;45.772;4.804;2023-05-09T01:47:52;3.47;;;1.83;;
74320;SDS011;62738;45.772;4.804;2023-05-09T01:50:19;2.63;;;1.80;;
74320;SDS011;62738;45.772;4.804;2023-05-09T01:52:48;3.03;;;1.83;;
74320;SDS011;62738;45.772;4.804;2023-05-09T01:55:18;3.47;;;1.90;;
74320;SDS011;62738;45.772;4.804;2023-05-09T01:57:46;4.32;;;2.00;;
74320;SDS011;62738;45.772;4.804;2023-05-09T02:00:14;3.03;;;1.85;;
74320;SDS011;62738;45.772;4.804;2023-05-09T02:02:41;3.38;;;1.73;;
74320;SDS011;62738;45.772;4.804;2023-05-09T02:05:09;2.20;;;1.52;;
74320;SDS011;62738;45.772;4.804;2023-05-09T02:07:37;3.67;;;1.77;;
74320;SDS011;62738;45.772;4.804;2023-05-09T02:10:06;3.50;;;1.70;;
74320;SDS011;62738;45.772;4.804;2023-05-09T02:12:34;3.10;;;1.65;;
74320;SDS011;62738;45.772;4.804;2023-05-09T02:15:01;4.43;;;1.75;;
74320;SDS011;62738;45.772;4.804;2023-05-09T02:17:28;4.15;;;1.75;;
74320;SDS011;62738;45.772;4.804;2023-05-09T02:19:56;2.92;;;1.70;;
74320;SDS011;62738;45.772;4.804;2023-05-09T02:22:22;2.50;;;2.00;;
74320;SDS011;62738;45.772;4.804;2023-05-09T02:24:49;4.28;;;2.00;;
74320;SDS011;62738;45.772;4.804;2023-05-09T02:27:16;2.75;;;1.75;;
74320;SDS011;62738;45.772;4.804;2023-05-09T02:29:47;3.55;;;1.90;;
74320;SDS011;62738;45.772;4.804;2023-05-09T02:32:23;3.38;;;2.13;;
74320;SDS011;62738;45.772;4.804;2023-05-09T02:34:52;4.05;;;2.08;;
74320;SDS011;62738;45.772;4.804;2023-05-09T02:37:19;3.85;;;2.00;;
74320;SDS011;62738;45.772;4.804;2023-05-09T02:39:46;3.03;;;1.90;;
74320;SDS011;62738;45.772;4.804;2023-05-09T02:42:15;3.97;;;1.83;;
74320;SDS011;62738;45.772;4.804;2023-05-09T02:44:46;4.03;;;2.13;;
74320;SDS011;62738;45.772;4.804;2023-05-09T02:47:13;4.10;;;1.90;;
74320;SDS011;62738;45.772;4.804;2023-05-09T02:49:39;3.83;;;2.13;;
74320;SDS011;62738;45.772;4.804;2023-05-09T02:52:06;3.45;;;2.10;;
74320;SDS011;62738;45.772;4.804;2023-05-09T02:54:33;3.30;;;2.30;;
74320;SDS011;62738;45.772;4.804;2023-05-09T02:56:59;2.72;;;1.92;;
74320;SDS011;62738;45.772;4.804;2023-05-09T02:59:26;3.97;;;2.05;;
74320;SDS011;62738;45.772;4.804;2023-05-09T03:01:52;4.07;;;2.28;;
74320;SDS011;62738;45.772;4.804;2023-05-09T03:04:19;5.13;;;2.20;;
74320;SDS011;62738;45.772;4.804;2023-05-09T03:06:46;3.25;;;2.10;;
74320;SDS011;62738;45.772;4.804;2023-05-09T03:09:13;3.00;;;2.13;;
74320;SDS011;62738;45.772;4.804;2023-05-09T03:11:39;4.13;;;2.17;;
74320;SDS011;62738;45.772;4.804;2023-05-09T03:14:06;3.08;;;2.05;;
74320;SDS011;62738;45.772;4.804;2023-05-09T03:16:33;3.00;;;2.15;;
74320;SDS011;62738;45.772;4.804;2023-05-09T03:19:00;2.92;;;2.10;;
74320;SDS011;62738;45.772;4.804;2023-05-09T03:21:28;3.15;;;2.10;;
74320;SDS011;62738;45.772;4.804;2023-05-09T03:23:55;3.88;;;2.10;;
74320;SDS011;62738;45.772;4.804;2023-05-09T03:26:22;5.47;;;2.38;;
74320;SDS011;62738;45.772;4.804;2023-05-09T03:28:48;2.88;;;2.20;;
74320;SDS011;62738;45.772;4.804;2023-05-09T03:31:15;5.18;;;2.28;;
74320;SDS011;62738;45.772;4.804;2023-05-09T03:33:41;3.83;;;2.10;;
74320;SDS011;62738;45.772;4.804;2023-05-09T03:36:08;6.00;;;2.20;;
74320;SDS011;62738;45.772;4.804;2023-05-09T03:38:35;4.57;;;2.50;;
74320;SDS011;62738;45.772;4.804;2023-05-09T03:41:01;3.75;;;2.08;;
74320;SDS011;62738;45.772;4.804;2023-05-09T03:43:29;3.85;;;2.33;;
74320;SDS011;62738;45.772;4.804;2023-05-09T03:45:55;3.38;;;2.30;;
74320;SDS011;62738;45.772;4.804;2023-05-09T03:48:22;5.85;;;2.38;;
74320;SDS011;62738;45.772;4.804;2023-05-09T03:50:48;3.20;;;2.00;;
74320;SDS011;62738;45.772;4.804;2023-05-09T03:53:15;5.35;;;2.13;;
74320;SDS011;62738;45.772;4.804;2023-05-09T03:55:42;3.05;;;2.10;;
74320;SDS011;62738;45.772;4.804;2023-05-09T03:58:08;3.40;;;2.15;;
74320;SDS011;62738;45.772;4.804;2023-05-09T04:00:36;3.95;;;2.10;;
74320;SDS011;62738;45.772;4.804;2023-05-09T04:03:03;4.05;;;2.08;;
74320;SDS011;62738;45.772;4.804;2023-05-09T04:05:30;4.30;;;2.38;;
74320;SDS011;62738;45.772;4.804;2023-05-09T04:07:58;4.13;;;2.10;;
74320;SDS011;62738;45.772;4.804;2023-05-09T04:10:26;3.75;;;2.53;;
74320;SDS011;62738;45.772;4.804;2023-05-09T04:12:52;4.10;;;2.17;;
74320;SDS011;62738;45.772;4.804;2023-05-09T04:15:19;4.65;;;2.50;;
74320;SDS011;62738;45.772;4.804;2023-05-09T04:17:46;4.22;;;2.10;;
74320;SDS011;62738;45.772;4.804;2023-05-09T04:20:12;4.10;;;2.38;;
74320;SDS011;62738;45.772;4.804;2023-05-09T04:22:39;4.30;;;2.45;;
74320;SDS011;62738;45.772;4.804;2023-05-09T04:25:06;3.90;;;2.60;;
74320;SDS011;62738;45.772;4.804;2023-05-09T04:27:33;4.80;;;2.20;;
74320;SDS011;62738;45.772;4.804;2023-05-09T04:30:00;3.67;;;2.33;;
74320;SDS011;62738;45.772;4.804;2023-05-09T04:32:27;2.80;;;2.20;;
74320;SDS011;62738;45.772;4.804;2023-05-09T04:34:53;4.60;;;2.20;;
74320;SDS011;62738;45.772;4.804;2023-05-09T04:37:20;4.35;;;2.42;;
74320;SDS011;62738;45.772;4.804;2023-05-09T04:39:47;3.42;;;2.45;;
74320;SDS011;62738;45.772;4.804;2023-05-09T04:42:13;4.38;;;2.40;;
74320;SDS011;62738;45.772;4.804;2023-05-09T04:44:40;3.55;;;2.55;;
74320;SDS011;62738;45.772;4.804;2023-05-09T04:47:07;5.38;;;2.33;;
74320;SDS011;62738;45.772;4.804;2023-05-09T04:49:33;5.13;;;2.60;;
74320;SDS011;62738;45.772;4.804;2023-05-09T04:52:00;4.13;;;2.70;;
74320;SDS011;62738;45.772;4.804;2023-05-09T04:54:26;3.97;;;2.53;;
74320;SDS011;62738;45.772;4.804;2023-05-09T04:56:53;4.55;;;2.50;;
74320;SDS011;62738;45.772;4.804;2023-05-09T04:59:35;5.07;;;2.35;;
74320;SDS011;62738;45.772;4.804;2023-05-09T05:02:02;4.32;;;2.38;;
74320;SDS011;62738;45.772;4.804;2023-05-09T05:04:29;6.03;;;2.53;;
74320;SDS011;62738;45.772;4.804;2023-05-09T05:06:55;3.80;;;2.25;;
74320;SDS011;62738;45.772;4.804;2023-05-09T05:09:22;4.38;;;2.78;;
74320;SDS011;62738;45.772;4.804;2023-05-09T05:11:49;5.85;;;2.47;;
74320;SDS011;62738;45.772;4.804;2023-05-09T05:14:27;8.32;;;2.67;;
74320;SDS011;62738;45.772;4.804;2023-05-09T05:16:54;5.38;;;2.40;;
74320;SDS011;62738;45.772;4.804;2023-05-09T05:19:20;6.18;;;2.58;;
74320;SDS011;62738;45.772;4.804;2023-05-09T05:21:47;5.38;;;2.38;;
74320;SDS011;62738;45.772;4.804;2023-05-09T05:24:14;4.10;;;2.40;;
74320;SDS011;62738;45.772;4.804;2023-05-09T05:26:40;6.50;;;2.95;;
74320;SDS011;62738;45.772;4.804;2023-05-09T05:29:07;5.70;;;2.88;;
74320;SDS011;62738;45.772;4.804;2023-05-09T05:31:34;6.22;;;2.72;;
74320;SDS011;62738;45.772;4.804;2023-05-09T05:34:01;4.40;;;2.92;;
74320;SDS011;62738;45.772;4.804;2023-05-09T05:36:28;3.90;;;2.60;;
74320;SDS011;62738;45.772;4.804;2023-05-09T05:38:54;5.15;;;3.00;;
74320;SDS011;62738;45.772;4.804;2023-05-09T05:41:21;4.95;;;2.88;;
74320;SDS011;62738;45.772;4.804;2023-05-09T05:43:48;5.07;;;2.60;;
74320;SDS011;62738;45.772;4.804;2023-05-09T05:46:18;5.68;;;3.15;;
74320;SDS011;62738;45.772;4.804;2023-05-09T05:48:45;5.45;;;2.90;;
74320;SDS011;62738;45.772;4.804;2023-05-09T05:51:11;4.35;;;2.72;;
74320;SDS011;62738;45.772;4.804;2023-05-09T05:53:38;3.88;;;2.88;;
74320;SDS011;62738;45.772;4.804;2023-05-09T05:56:05;12.13;;;3.00;;
74320;SDS011;62738;45.772;4.804;2023-05-09T05:58:31;6.63;;;3.10;;
74320;SDS011;62738;45.772;4.804;2023-05-09T06:00:58;7.20;;;3.42;;
74320;SDS011;62738;45.772;4.804;2023-05-09T06:03:25;9.23;;;3.25;;
74320;SDS011;62738;45.772;4.804;2023-05-09T06:05:52;5.53;;;3.03;;
74320;SDS011;62738;45.772;4.804;2023-05-09T06:08:18;6.32;;;2.90;;
74320;SDS011;62738;45.772;4.804;2023-05-09T06:10:46;5.40;;;3.22;;
74320;SDS011;62738;45.772;4.804;2023-05-09T06:13:12;5.65;;;3.30;;
74320;SDS011;62738;45.772;4.804;2023-05-09T06:15:39;7.60;;;3.33;;
74320;SDS011;62738;45.772;4.804;2023-05-09T06:18:06;4.20;;;2.97;;
74320;SDS011;62738;45.772;4.804;2023-05-09T06:20:34;6.80;;;3.53;;
74320;SDS011;62738;45.772;4.804;2023-05-09T06:23:01;8.27;;;3.15;;
74320;SDS011;62738;45.772;4.804;2023-05-09T06:25:28;5.95;;;3.88;;
74320;SDS011;62738;45.772;4.804;2023-05-09T06:27:54;6.00;;;3.65;;
74320;SDS011;62738;45.772;4.804;2023-05-09T06:30:21;6.93;;;3.55;;
74320;SDS011;62738;45.772;4.804;2023-05-09T06:32:52;6.10;;;3.95;;
74320;SDS011;62738;45.772;4.804;2023-05-09T06:35:19;8.52;;;4.20;;
74320;SDS011;62738;45.772;4.804;2023-05-09T06:37:46;9.45;;;4.03;;
74320;SDS011;62738;45.772;4.804;2023-05-09T06:40:14;10.32;;;4.03;;
74320;SDS011;62738;45.772;4.804;2023-05-09T06:42:41;9.50;;;4.20;;
74320;SDS011;62738;45.772;4.804;2023-05-09T06:45:08;11.02;;;4.38;;
74320;SDS011;62738;45.772;4.804;2023-05-09T06:47:35;9.68;;;4.05;;
74320;SDS011;62738;45.772;4.804;2023-05-09T06:50:01;6.22;;;3.92;;
74320;SDS011;62738;45.772;4.804;2023-05-09T06:52:29;7.68;;;4.40;;
74320;SDS011;62738;45.772;4.804;2023-05-09T06:54:55;5.40;;;3.70;;
74320;SDS011;62738;45.772;4.804;2023-05-09T06:57:22;6.63;;;3.40;;
74320;SDS011;62738;45.772;4.804;2023-05-09T06:59:48;7.35;;;3.63;;
74320;SDS011;62738;45.772;4.804;2023-05-09T07:02:15;8.23;;;3.45;;
74320;SDS011;62738;45.772;4.804;2023-05-09T07:04:42;6.90;;;3.83;;
74320;SDS011;62738;45.772;4.804;2023-05-09T07:07:09;6.82;;;3.72;;
74320;SDS011;62738;45.772;4.804;2023-05-09T07:09:36;7.03;;;4.03;;
74320;SDS011;62738;45.772;4.804;2023-05-09T07:12:02;6.88;;;3.92;;
74320;SDS011;62738;45.772;4.804;2023-05-09T07:14:29;7.57;;;3.88;;
74320;SDS011;62738;45.772;4.804;2023-05-09T07:16:56;5.75;;;3.30;;
74320;SDS011;62738;45.772;4.804;2023-05-09T07:19:39;5.00;;;2.97;;
74320;SDS011;62738;45.772;4.804;2023-05-09T07:22:06;5.45;;;3.17;;
74320;SDS011;62738;45.772;4.804;2023-05-09T07:24:33;6.28;;;3.42;;
74320;SDS011;62738;45.772;4.804;2023-05-09T07:27:01;5.57;;;3.90;;
74320;SDS011;62738;45.772;4.804;2023-05-09T07:29:29;6.63;;;4.25;;
74320;SDS011;62738;45.772;4.804;2023-05-09T07:31:55;9.13;;;4.07;;
74320;SDS011;62738;45.772;4.804;2023-05-09T07:34:22;10.45;;;4.05;;
74320;SDS011;62738;45.772;4.804;2023-05-09T07:36:50;8.60;;;3.47;;
74320;SDS011;62738;45.772;4.804;2023-05-09T07:39:17;5.05;;;2.60;;
74320;SDS011;62738;45.772;4.804;2023-05-09T07:41:44;6.88;;;2.92;;
74320;SDS011;62738;45.772;4.804;2023-05-09T07:44:14;8.45;;;3.10;;
74320;SDS011;62738;45.772;4.804;2023-05-09T07:46:41;6.38;;;2.85;;
74320;SDS011;62738;45.772;4.804;2023-05-09T07:49:08;5.75;;;2.97;;
74320;SDS011;62738;45.772;4.804;2023-05-09T07:51:34;7.00;;;3.72;;
74320;SDS011;62738;45.772;4.804;2023-05-09T07:54:01;9.35;;;3.53;;
74320;SDS011;62738;45.772;4.804;2023-05-09T07:56:31;6.50;;;3.67;;
74320;SDS011;62738;45.772;4.804;2023-05-09T07:58:57;5.93;;;3.03;;
74320;SDS011;62738;45.772;4.804;2023-05-09T08:01:24;10.00;;;3.20;;
74320;SDS011;62738;45.772;4.804;2023-05-09T08:03:51;6.30;;;2.70;;
74320;SDS011;62738;45.772;4.804;2023-05-09T08:06:18;8.93;;;3.22;;
74320;SDS011;62738;45.772;4.804;2023-05-09T08:08:48;5.18;;;2.83;;
74320;SDS011;62738;45.772;4.804;2023-05-09T08:11:14;7.78;;;2.58;;
74320;SDS011;62738;45.772;4.804;2023-05-09T08:13:41;5.75;;;3.05;;
74320;SDS011;62738;45.772;4.804;2023-05-09T08:16:07;5.40;;;2.40;;
74320;SDS011;62738;45.772;4.804;2023-05-09T08:18:34;6.28;;;2.30;;
74320;SDS011;62738;45.772;4.804;2023-05-09T08:21:01;6.55;;;2.40;;
74320;SDS011;62738;45.772;4.804;2023-05-09T08:23:27;7.10;;;2.85;;
74320;SDS011;62738;45.772;4.804;2023-05-09T08:25:55;4.47;;;2.42;;
74320;SDS011;62738;45.772;4.804;2023-05-09T08:28:22;5.30;;;2.80;;
74320;SDS011;62738;45.772;4.804;2023-05-09T08:30:50;5.65;;;2.58;;
74320;SDS011;62738;45.772;4.804;2023-05-09T08:33:16;6.18;;;2.40;;
74320;SDS011;62738;45.772;4.804;2023-05-09T08:35:43;5.30;;;2.72;;
74320;SDS011;62738;45.772;4.804;2023-05-09T08:38:10;5.18;;;2.60;;
74320;SDS011;62738;45.772;4.804;2023-05-09T08:40:37;4.85;;;2.50;;
74320;SDS011;62738;45.772;4.804;2023-05-09T08:43:05;6.72;;;2.42;;
74320;SDS011;62738;45.772;4.804;2023-05-09T08:45:33;4.68;;;2.22;;
74320;SDS011;62738;45.772;4.804;2023-05-09T08:48:05;10.73;;;2.70;;
74320;SDS011;62738;45.772;4.804;2023-05-09T08:50:32;4.68;;;2.25;;
74320;SDS011;62738;45.772;4.804;2023-05-09T08:53:00;5.05;;;2.30;;
74320;SDS011;62738;45.772;4.804;2023-05-09T08:55:27;3.58;;;2.17;;
74320;SDS011;62738;45.772;4.804;2023-05-09T08:57:54;4.45;;;2.25;;
74320;SDS011;62738;45.772;4.804;2023-05-09T09:00:21;4.93;;;2.22;;
74320;SDS011;62738;45.772;4.804;2023-05-09T09:02:48;7.45;;;1.92;;
74320;SDS011;62738;45.772;4.804;2023-05-09T09:05:15;5.18;;;2.10;;
74320;SDS011;62738;45.772;4.804;2023-05-09T09:08:02;3.88;;;2.03;;
74320;SDS011;62738;45.772;4.804;2023-05-09T09:10:32;4.50;;;2.05;;
74320;SDS011;62738;45.772;4.804;2023-05-09T09:13:00;4.13;;;2.42;;
74320;SDS011;62738;45.772;4.804;2023-05-09T09:15:33;7.43;;;2.28;;
74320;SDS011;62738;45.772;4.804;2023-05-09T09:18:08;5.90;;;1.70;;
74320;SDS011;62738;45.772;4.804;2023-05-09T09:20:44;3.33;;;2.20;;
74320;SDS011;62738;45.772;4.804;2023-05-09T09:23:17;5.38;;;2.33;;
74320;SDS011;62738;45.772;4.804;2023-05-09T09:25:46;4.45;;;1.90;;
74320;SDS011;62738;45.772;4.804;2023-05-09T09:28:13;5.45;;;1.95;;
74320;SDS011;62738;45.772;4.804;2023-05-09T09:30:43;4.78;;;2.05;;
74320;SDS011;62738;45.772;4.804;2023-05-09T09:33:16;3.92;;;1.83;;
74320;SDS011;62738;45.772;4.804;2023-05-09T09:35:46;5.70;;;2.30;;
74320;SDS011;62738;45.772;4.804;2023-05-09T09:38:17;3.40;;;2.00;;
74320;SDS011;62738;45.772;4.804;2023-05-09T09:41:02;4.43;;;1.70;;
74320;SDS011;62738;45.772;4.804;2023-05-09T09:43:29;4.68;;;2.05;;
74320;SDS011;62738;45.772;4.804;2023-05-09T09:46:00;3.33;;;2.00;;
74320;SDS011;62738;45.772;4.804;2023-05-09T09:48:32;7.22;;;2.20;;
74320;SDS011;62738;45.772;4.804;2023-05-09T09:51:09;5.25;;;1.95;;
74320;SDS011;62738;45.772;4.804;2023-05-09T09:53:40;5.30;;;1.85;;
74320;SDS011;62738;45.772;4.804;2023-05-09T09:56:08;3.17;;;1.75;;
74320;SDS011;62738;45.772;4.804;2023-05-09T09:58:35;4.00;;;1.60;;
74320;SDS011;62738;45.772;4.804;2023-05-09T10:01:05;3.92;;;1.63;;
74320;SDS011;62738;45.772;4.804;2023-05-09T10:03:34;2.95;;;1.60;;
74320;SDS011;62738;45.772;4.804;2023-05-09T10:06:08;3.30;;;1.55;;
74320;SDS011;62738;45.772;4.804;2023-05-09T10:08:39;4.88;;;1.40;;
74320;SDS011;62738;45.772;4.804;2023-05-09T10:11:07;3.50;;;1.50;;
74320;SDS011;62738;45.772;4.804;2023-05-09T10:13:34;3.30;;;1.75;;
74320;SDS011;62738;45.772;4.804;2023-05-09T10:16:04;3.17;;;1.70;;
74320;SDS011;62738;45.772;4.804;2023-05-09T10:18:31;2.15;;;1.52;;
74320;SDS011;62738;45.772;4.804;2023-05-09T10:20:59;5.07;;;1.98;;
74320;SDS011;62738;45.772;4.804;2023-05-09T10:23:31;4.40;;;1.80;;
74320;SDS011;62738;45.772;4.804;2023-05-09T10:26:04;5.13;;;1.80;;
74320;SDS011;62738;45.772;4.804;2023-05-09T10:28:36;3.63;;;1.73;;
74320;SDS011;62738;45.772;4.804;2023-05-09T10:31:13;5.57;;;1.77;;
74320;SDS011;62738;45.772;4.804;2023-05-09T10:33:46;3.42;;;2.00;;
74320;SDS011;62738;45.772;4.804;2023-05-09T10:36:17;3.08;;;1.50;;
74320;SDS011;62738;45.772;4.804;2023-05-09T10:38:50;4.45;;;2.05;;
74320;SDS011;62738;45.772;4.804;2023-05-09T10:41:19;2.15;;;1.20;;
74320;SDS011;62738;45.772;4.804;2023-05-09T10:43:50;4.93;;;1.33;;
74320;SDS011;62738;45.772;4.804;2023-05-09T10:46:22;3.65;;;1.73;;
74320;SDS011;62738;45.772;4.804;2023-05-09T10:48:49;5.75;;;1.75;;
74320;SDS011;62738;45.772;4.804;2023-05-09T10:51:16;3.30;;;1.70;;
74320;SDS011;62738;45.772;4.804;2023-05-09T10:53:47;6.28;;;2.40;;
74320;SDS011;62738;45.772;4.804;2023-05-09T10:56:30;3.10;;;1.85;;
74320;SDS011;62738;45.772;4.804;2023-05-09T10:58:59;2.95;;;1.60;;
74320;SDS011;62738;45.772;4.804;2023-05-09T11:01:33;6.82;;;1.98;;
74320;SDS011;62738;45.772;4.804;2023-05-09T11:04:13;4.68;;;2.33;;
74320;SDS011;62738;45.772;4.804;2023-05-09T11:06:49;4.25;;;2.20;;
74320;SDS011;62738;45.772;4.804;2023-05-09T11:09:24;4.00;;;1.90;;
74320;SDS011;62738;45.772;4.804;2023-05-09T11:17:04;5.45;;;2.40;;
74320;SDS011;62738;45.772;4.804;2023-05-09T11:24:49;4.00;;;2.45;;
74320;SDS011;62738;45.772;4.804;2023-05-09T11:27:21;4.70;;;2.40;;
74320;SDS011;62738;45.772;4.804;2023-05-09T11:29:53;4.43;;;2.15;;
74320;SDS011;62738;45.772;4.804;2023-05-09T11:32:23;4.18;;;2.10;;
74320;SDS011;62738;45.772;4.804;2023-05-09T11:35:12;3.22;;;1.85;;
74320;SDS011;62738;45.772;4.804;2023-05-09T11:37:51;3.83;;;1.70;;
74320;SDS011;62738;45.772;4.804;2023-05-09T11:40:25;3.00;;;1.70;;
74320;SDS011;62738;45.772;4.804;2023-05-09T11:42:54;2.58;;;1.73;;
74320;SDS011;62738;45.772;4.804;2023-05-09T11:45:24;2.20;;;1.70;;
74320;SDS011;62738;45.772;4.804;2023-05-09T11:47:55;2.40;;;1.58;;
74320;SDS011;62738;45.772;4.804;2023-05-09T11:50:25;3.10;;;1.70;;
74320;SDS011;62738;45.772;4.804;2023-05-09T11:52:52;3.40;;;1.60;;
74320;SDS011;62738;45.772;4.804;2023-05-09T11:55:19;3.38;;;1.52;;
74320;SDS011;62738;45.772;4.804;2023-05-09T11:57:55;2.75;;;1.60;;
74320;SDS011;62738;45.772;4.804;2023-05-09T12:00:22;2.50;;;1.48;;
74320;SDS011;62738;45.772;4.804;2023-05-09T12:02:51;2.85;;;1.65;;
74320;SDS011;62738;45.772;4.804;2023-05-09T12:05:19;2.83;;;1.77;;
74320;SDS011;62738;45.772;4.804;2023-05-09T12:07:47;2.63;;;1.55;;
74320;SDS011;62738;45.772;4.804;2023-05-09T12:10:15;3.88;;;1.70;;
74320;SDS011;62738;45.772;4.804;2023-05-09T12:12:45;4.63;;;1.65;;
74320;SDS011;62738;45.772;4.804;2023-05-09T12:15:17;3.55;;;1.75;;
74320;SDS011;62738;45.772;4.804;2023-05-09T12:17:45;3.88;;;2.25;;
74320;SDS011;62738;45.772;4.804;2023-05-09T12:20:14;4.25;;;2.35;;
74320;SDS011;62738;45.772;4.804;2023-05-09T12:22:42;2.92;;;2.03;;
74320;SDS011;62738;45.772;4.804;2023-05-09T12:25:09;4.13;;;2.28;;
74320;SDS011;62738;45.772;4.804;2023-05-09T12:27:37;4.72;;;2.13;;
74320;SDS011;62738;45.772;4.804;2023-05-09T12:30:06;4.90;;;2.35;;
74320;SDS011;62738;45.772;4.804;2023-05-09T12:32:35;4.13;;;2.20;;
74320;SDS011;62738;45.772;4.804;2023-05-09T12:35:08;4.40;;;2.20;;
74320;SDS011;62738;45.772;4.804;2023-05-09T12:37:36;4.78;;;2.85;;
74320;SDS011;62738;45.772;4.804;2023-05-09T12:40:03;6.20;;;2.70;;
74320;SDS011;62738;45.772;4.804;2023-05-09T12:42:44;3.65;;;2.30;;
74320;SDS011;62738;45.772;4.804;2023-05-09T12:45:12;5.47;;;3.00;;
74320;SDS011;62738;45.772;4.804;2023-05-09T12:47:39;5.78;;;3.13;;
74320;SDS011;62738;45.772;4.804;2023-05-09T12:50:10;6.05;;;3.05;;
74320;SDS011;62738;45.772;4.804;2023-05-09T12:52:39;5.70;;;3.30;;
74320;SDS011;62738;45.772;4.804;2023-05-09T12:55:27;5.28;;;2.78;;
74320;SDS011;62738;45.772;4.804;2023-05-09T12:57:58;5.00;;;3.33;;
74320;SDS011;62738;45.772;4.804;2023-05-09T13:00:26;6.22;;;3.42;;
74320;SDS011;62738;45.772;4.804;2023-05-09T13:02:53;5.45;;;3.20;;
74320;SDS011;62738;45.772;4.804;2023-05-09T13:05:20;5.10;;;3.15;;
74320;SDS011;62738;45.772;4.804;2023-05-09T13:07:48;6.63;;;2.90;;
74320;SDS011;62738;45.772;4.804;2023-05-09T13:10:18;5.68;;;2.70;;
74320;SDS011;62738;45.772;4.804;2023-05-09T13:12:49;10.82;;;3.15;;
74320;SDS011;62738;45.772;4.804;2023-05-09T13:15:20;6.65;;;3.17;;
74320;SDS011;62738;45.772;4.804;2023-05-09T13:17:48;7.07;;;3.28;;
74320;SDS011;62738;45.772;4.804;2023-05-09T13:20:17;7.30;;;3.42;;
74320;SDS011;62738;45.772;4.804;2023-05-09T13:22:44;6.10;;;3.20;;
74320;SDS011;62738;45.772;4.804;2023-05-09T13:25:11;5.45;;;3.33;;
74320;SDS011;62738;45.772;4.804;2023-05-09T13:27:38;5.45;;;3.40;;
74320;SDS011;62738;45.772;4.804;2023-05-09T13:30:05;6.88;;;3.33;;
74320;SDS011;62738;45.772;4.804;2023-05-09T13:32:34;4.32;;;2.90;;
74320;SDS011;62738;45.772;4.804;2023-05-09T13:35:04;6.53;;;3.13;;
74320;SDS011;62738;45.772;4.804;2023-05-09T13:37:33;5.45;;;2.80;;
74320;SDS011;62738;45.772;4.804;2023-05-09T13:40:00;7.30;;;3.42;;
74320;SDS011;62738;45.772;4.804;2023-05-09T13:42:28;4.75;;;3.20;;
74320;SDS011;62738;45.772;4.804;2023-05-09T13:44:54;6.43;;;3.17;;
74320;SDS011;62738;45.772;4.804;2023-05-09T13:47:21;6.18;;;3.00;;
74320;SDS011;62738;45.772;4.804;2023-05-09T13:49:48;5.10;;;2.40;;
74320;SDS011;62738;45.772;4.804;2023-05-09T13:52:14;5.60;;;2.97;;
74320;SDS011;62738;45.772;4.804;2023-05-09T13:54:41;5.65;;;2.50;;
74320;SDS011;62738;45.772;4.804;2023-05-09T13:57:08;6.10;;;2.40;;
74320;SDS011;62738;45.772;4.804;2023-05-09T13:59:35;6.70;;;3.03;;
74320;SDS011;62738;45.772;4.804;2023-05-09T14:02:02;5.55;;;2.45;;
74320;SDS011;62738;45.772;4.804;2023-05-09T14:04:29;4.18;;;2.50;;
74320;SDS011;62738;45.772;4.804;2023-05-09T14:06:59;5.43;;;2.40;;
74320;SDS011;62738;45.772;4.804;2023-05-09T14:09:26;6.18;;;2.80;;
74320;SDS011;62738;45.772;4.804;2023-05-09T14:11:54;7.28;;;2.58;;
74320;SDS011;62738;45.772;4.804;2023-05-09T14:14:22;6.38;;;2.75;;
74320;SDS011;62738;45.772;4.804;2023-05-09T14:16:50;6.10;;;2.30;;
74320;SDS011;62738;45.772;4.804;2023-05-09T14:19:17;5.38;;;2.58;;
74320;SDS011;62738;45.772;4.804;2023-05-09T14:21:43;5.38;;;2.42;;
74320;SDS011;62738;45.772;4.804;2023-05-09T14:24:12;6.53;;;2.65;;
74320;SDS011;62738;45.772;4.804;2023-05-09T14:26:41;5.30;;;2.45;;
74320;SDS011;62738;45.772;4.804;2023-05-09T14:29:08;4.20;;;2.38;;
74320;SDS011;62738;45.772;4.804;2023-05-09T14:31:35;6.88;;;2.35;;
74320;SDS011;62738;45.772;4.804;2023-05-09T14:34:02;5.35;;;2.38;;
74320;SDS011;62738;45.772;4.804;2023-05-09T14:36:30;7.40;;;2.45;;
74320;SDS011;62738;45.772;4.804;2023-05-09T14:38:57;5.25;;;2.25;;
74320;SDS011;62738;45.772;4.804;2023-05-09T14:41:24;4.85;;;2.22;;
74320;SDS011;62738;45.772;4.804;2023-05-09T14:43:51;5.00;;;2.38;;
74320;SDS011;62738;45.772;4.804;2023-05-09T14:46:17;5.78;;;2.22;;
74320;SDS011;62738;45.772;4.804;2023-05-09T14:48:44;5.95;;;2.40;;
74320;SDS011;62738;45.772;4.804;2023-05-09T14:51:11;3.80;;;1.77;;
74320;SDS011;62738;45.772;4.804;2023-05-09T14:53:38;5.57;;;1.95;;
74320;SDS011;62738;45.772;4.804;2023-05-09T14:56:07;4.53;;;1.98;;
74320;SDS011;62738;45.772;4.804;2023-05-09T14:58:35;6.43;;;1.80;;
74320;SDS011;62738;45.772;4.804;2023-05-09T15:01:02;4.53;;;2.00;;
74320;SDS011;62738;45.772;4.804;2023-05-09T15:03:29;7.05;;;2.15;;
74320;SDS011;62738;45.772;4.804;2023-05-09T15:05:56;4.05;;;2.00;;
74320;SDS011;62738;45.772;4.804;2023-05-09T15:08:26;5.82;;;1.75;;
74320;SDS011;62738;45.772;4.804;2023-05-09T15:10:53;4.45;;;1.55;;
74320;SDS011;62738;45.772;4.804;2023-05-09T15:13:20;6.18;;;1.92;;
74320;SDS011;62738;45.772;4.804;2023-05-09T15:15:46;3.55;;;1.65;;
74320;SDS011;62738;45.772;4.804;2023-05-09T15:18:13;4.18;;;1.77;;
74320;SDS011;62738;45.772;4.804;2023-05-09T15:20:42;3.45;;;1.52;;